createdAt,value
2018-12-21T00:01:05.067Z,8.60
2018-12-21T00:03:32.632Z,8.70
2018-12-21T00:06:00.180Z,8.60
2018-12-21T00:08:27.741Z,8.70
2018-12-21T00:10:55.323Z,8.70
2018-12-21T00:13:22.859Z,8.70
2018-12-21T00:15:50.423Z,8.70
2018-12-21T00:18:17.996Z,8.60
2018-12-21T00:20:45.567Z,8.70
2018-12-21T00:23:13.105Z,8.70
2018-12-21T00:25:40.656Z,8.70
2018-12-21T00:28:08.234Z,8.70
2018-12-21T00:30:35.302Z,8.70
2018-12-21T00:33:08.586Z,8.70
2018-12-21T00:35:41.910Z,8.80
2018-12-21T00:38:15.947Z,8.80
2018-12-21T00:40:48.992Z,8.80
2018-12-21T00:43:16.568Z,8.80
2018-12-21T00:45:44.873Z,8.70
2018-12-21T00:48:12.436Z,8.70
2018-12-21T00:50:39.975Z,8.70
2018-12-21T00:53:07.551Z,8.70
2018-12-21T00:55:35.088Z,8.80
2018-12-21T00:58:03.481Z,8.80
2018-12-21T01:00:31.550Z,8.70
2018-12-21T01:02:59.143Z,8.70
2018-12-21T01:05:26.716Z,8.70
2018-12-21T01:07:55.070Z,8.80
2018-12-21T01:10:22.663Z,8.80
2018-12-21T01:12:50.198Z,8.80
2018-12-21T01:15:17.745Z,8.80
2018-12-21T01:17:45.300Z,8.80
2018-12-21T01:20:12.877Z,8.80
2018-12-21T01:22:40.423Z,8.80
2018-12-21T01:25:08.942Z,8.80
2018-12-21T01:27:36.504Z,8.80
2018-12-21T01:30:04.037Z,8.60
2018-12-21T01:32:32.371Z,8.50
2018-12-21T01:34:59.906Z,8.50
2018-12-21T01:37:27.476Z,8.50
2018-12-21T01:39:55.011Z,8.40
2018-12-21T01:42:22.603Z,8.50
2018-12-21T01:44:50.133Z,8.50
2018-12-21T01:47:17.699Z,8.60
2018-12-21T01:49:45.231Z,8.60
2018-12-21T01:52:12.763Z,8.50
2018-12-21T01:54:40.340Z,8.50
2018-12-21T01:57:07.908Z,8.60
2018-12-21T01:59:35.465Z,8.60
2018-12-21T02:02:03.931Z,8.60
2018-12-21T02:04:31.555Z,8.60
2018-12-21T02:06:59.087Z,8.60
2018-12-21T02:09:26.652Z,8.70
2018-12-21T02:11:54.191Z,8.70
2018-12-21T02:14:21.727Z,8.70
2018-12-21T02:16:49.410Z,8.70
2018-12-21T02:19:17.055Z,8.70
2018-12-21T02:21:44.640Z,8.70
2018-12-21T02:24:12.172Z,8.70
2018-12-21T02:26:39.728Z,8.70
2018-12-21T02:29:07.269Z,8.70
2018-12-21T02:31:34.851Z,8.80
2018-12-21T02:34:02.873Z,8.80
2018-12-21T02:36:30.450Z,8.80
2018-12-21T02:38:58.021Z,8.80
2018-12-21T02:41:25.569Z,8.80
2018-12-21T02:43:53.152Z,8.80
2018-12-21T02:46:20.692Z,8.90
2018-12-21T02:48:48.270Z,8.90
2018-12-21T02:51:15.812Z,8.90
2018-12-21T02:53:43.389Z,9.00
2018-12-21T02:56:10.931Z,9.00
2018-12-21T02:58:38.471Z,9.00
2018-12-21T03:01:06.036Z,9.00
2018-12-21T03:03:33.567Z,9.10
2018-12-21T03:06:01.132Z,9.10
2018-12-21T03:08:28.675Z,9.10
2018-12-21T03:10:56.283Z,9.20
2018-12-21T03:13:23.848Z,9.20
2018-12-21T03:15:51.669Z,9.30
2018-12-21T03:18:20.000Z,9.30
2018-12-21T03:20:47.540Z,9.30
2018-12-21T03:23:16.094Z,9.30
2018-12-21T03:25:43.739Z,9.30
2018-12-21T03:28:11.233Z,9.30
2018-12-21T03:30:38.781Z,9.30
2018-12-21T03:33:06.362Z,9.30
2018-12-21T03:35:33.905Z,9.40
2018-12-21T03:38:01.481Z,9.40
2018-12-21T03:40:29.020Z,9.40
2018-12-21T03:42:56.573Z,9.40
2018-12-21T03:45:24.148Z,9.40
2018-12-21T03:47:51.680Z,9.50
2018-12-21T03:50:19.260Z,9.50
2018-12-21T03:52:46.834Z,9.60
2018-12-21T03:55:14.627Z,9.60
2018-12-21T03:57:42.952Z,9.50
2018-12-21T04:00:10.516Z,9.50
2018-12-21T04:02:38.060Z,9.50
2018-12-21T04:05:05.595Z,9.40
2018-12-21T04:07:33.172Z,9.40
2018-12-21T04:10:00.707Z,9.40
2018-12-21T04:12:29.256Z,9.40
2018-12-21T04:14:56.796Z,9.30
2018-12-21T04:17:24.361Z,9.60
2018-12-21T04:19:51.914Z,9.60
2018-12-21T04:22:19.746Z,9.40
2018-12-21T04:24:47.280Z,9.30
2018-12-21T04:27:14.893Z,9.10
2018-12-21T04:29:42.473Z,9.10
2018-12-21T04:32:10.010Z,9.00
2018-12-21T04:34:37.576Z,9.00
2018-12-21T04:37:05.108Z,8.90
2018-12-21T04:39:32.696Z,8.90
2018-12-21T04:42:00.236Z,8.90
2018-12-21T04:44:27.772Z,8.90
2018-12-21T04:46:55.340Z,8.90
2018-12-21T04:49:22.873Z,8.90
2018-12-21T04:51:50.441Z,8.90
2018-12-21T04:54:18.014Z,8.90
2018-12-21T04:56:45.556Z,8.90
2018-12-21T04:59:13.116Z,8.90
2018-12-21T05:01:40.652Z,8.90
2018-12-21T05:04:08.339Z,8.90
2018-12-21T05:06:36.583Z,9.00
2018-12-21T05:09:04.151Z,9.00
2018-12-21T05:11:31.701Z,9.00
2018-12-21T05:13:59.274Z,9.00
2018-12-21T05:16:26.823Z,9.10
2018-12-21T05:18:55.360Z,9.10
2018-12-21T05:21:22.937Z,9.20
2018-12-21T05:23:51.273Z,9.30
2018-12-21T05:26:18.819Z,9.30
2018-12-21T05:28:46.385Z,9.40
2018-12-21T05:31:14.004Z,9.50
2018-12-21T05:33:41.569Z,9.60
2018-12-21T05:36:09.105Z,9.60
2018-12-21T05:38:37.660Z,9.70
2018-12-21T05:41:05.237Z,9.60
2018-12-21T05:43:32.803Z,9.60
2018-12-21T05:46:00.340Z,9.60
2018-12-21T05:48:27.912Z,9.70
2018-12-21T05:50:55.488Z,9.80
2018-12-21T05:53:23.052Z,9.80
2018-12-21T05:55:50.596Z,10.10
2018-12-21T05:58:19.129Z,10.20
2018-12-21T06:00:46.699Z,10.20
2018-12-21T06:03:14.283Z,10.40
2018-12-21T06:05:41.912Z,10.20
2018-12-21T06:08:09.476Z,10.10
2018-12-21T06:10:37.821Z,10.00
2018-12-21T06:13:05.403Z,10.00
2018-12-21T06:15:32.943Z,9.90
2018-12-21T06:18:00.504Z,9.90
2018-12-21T06:20:28.081Z,9.70
2018-12-21T06:22:55.652Z,9.60
2018-12-21T06:25:23.198Z,9.50
2018-12-21T06:27:51.533Z,9.30
2018-12-21T06:30:19.105Z,9.30
2018-12-21T06:32:46.681Z,9.40
2018-12-21T06:35:14.222Z,9.30
2018-12-21T06:37:41.817Z,9.20
2018-12-21T06:40:09.344Z,9.20
2018-12-21T06:42:36.925Z,9.20
2018-12-21T06:45:05.219Z,9.30
2018-12-21T06:47:32.792Z,9.20
2018-12-21T06:50:00.336Z,9.30
2018-12-21T06:52:27.875Z,9.40
2018-12-21T06:54:55.444Z,9.30
2018-12-21T06:57:23.003Z,9.30
2018-12-21T06:59:50.560Z,9.30
2018-12-21T07:02:18.103Z,9.40
2018-12-21T07:04:46.444Z,9.80
2018-12-21T07:07:14.003Z,9.80
2018-12-21T07:09:41.621Z,9.90
2018-12-21T07:12:09.152Z,10.20
2018-12-21T07:14:37.456Z,10.10
2018-12-21T07:17:05.796Z,10.10
2018-12-21T07:19:33.336Z,10.00
2018-12-21T07:22:04.585Z,10.00
2018-12-21T07:24:32.145Z,10.00
2018-12-21T07:26:59.718Z,10.00
2018-12-21T07:29:28.035Z,9.70
2018-12-21T07:31:55.603Z,9.70
2018-12-21T07:34:23.153Z,9.60
2018-12-21T07:36:50.713Z,9.60
2018-12-21T07:39:18.260Z,9.50
2018-12-21T07:41:45.831Z,9.50
2018-12-21T07:44:13.360Z,9.40
2018-12-21T07:46:40.947Z,9.30
2018-12-21T07:49:08.488Z,9.30
2018-12-21T07:51:36.027Z,9.30
2018-12-21T07:54:03.603Z,9.20
2018-12-21T07:56:31.166Z,9.10
2018-12-21T07:58:58.729Z,9.20
2018-12-21T08:01:26.269Z,9.20
2018-12-21T08:03:55.288Z,9.20
2018-12-21T08:06:22.826Z,9.20
2018-12-21T08:08:50.388Z,9.20
2018-12-21T08:11:17.946Z,9.20
2018-12-21T08:13:45.517Z,9.10
2018-12-21T08:16:13.057Z,9.00
2018-12-21T08:18:41.623Z,9.00
2018-12-21T08:21:09.160Z,9.10
2018-12-21T08:23:44.134Z,9.10
2018-12-21T08:26:04.328Z,9.20
2018-12-21T08:28:31.893Z,9.20
2018-12-21T08:30:59.466Z,9.20
2018-12-21T08:33:27.032Z,9.20
2018-12-21T08:35:54.568Z,9.40
2018-12-21T08:38:22.272Z,9.40
2018-12-21T08:40:49.812Z,9.50
2018-12-21T08:43:18.142Z,9.80
2018-12-21T08:45:45.712Z,9.80
2018-12-21T08:48:13.272Z,10.00
2018-12-21T08:50:40.817Z,10.10
2018-12-21T08:53:08.384Z,10.00
2018-12-21T08:55:35.928Z,10.20
2018-12-21T08:58:03.497Z,10.30
2018-12-21T09:00:31.070Z,10.30
2018-12-21T09:02:58.641Z,10.40
2018-12-21T09:05:26.179Z,10.50
2018-12-21T09:07:53.716Z,10.60
2018-12-21T09:10:21.361Z,10.60
2018-12-21T09:12:48.902Z,10.60
2018-12-21T09:15:16.474Z,10.60
2018-12-21T09:17:44.029Z,10.70
2018-12-21T09:20:11.919Z,10.70
2018-12-21T09:22:39.484Z,10.70
2018-12-21T09:25:07.023Z,10.70
2018-12-21T09:27:34.596Z,10.80
2018-12-21T09:30:02.326Z,10.90
2018-12-21T09:32:29.883Z,10.90
2018-12-21T09:34:57.463Z,10.90
2018-12-21T09:37:25.005Z,10.90
2018-12-21T09:39:52.662Z,10.90
2018-12-21T09:42:20.220Z,11.00
2018-12-21T09:44:52.441Z,11.00
2018-12-21T09:47:15.431Z,11.00
2018-12-21T09:49:42.983Z,10.90
2018-12-21T09:52:10.554Z,11.00
2018-12-21T09:54:38.101Z,11.10
2018-12-21T09:57:05.677Z,11.00
2018-12-21T09:59:33.230Z,11.00
2018-12-21T10:02:00.780Z,11.00
2018-12-21T10:04:28.344Z,11.10
2018-12-21T10:06:55.917Z,11.00
2018-12-21T10:09:23.489Z,11.00
2018-12-21T10:11:51.019Z,10.90
2018-12-21T10:14:18.558Z,10.80
2018-12-21T10:16:47.097Z,10.80
2018-12-21T10:19:14.673Z,10.60
2018-12-21T10:21:42.245Z,10.60
2018-12-21T10:24:18.285Z,10.60
2018-12-21T10:26:37.414Z,10.50
2018-12-21T10:29:06.901Z,10.60
2018-12-21T10:31:34.443Z,10.60
2018-12-21T10:34:01.979Z,10.50
2018-12-21T10:36:29.548Z,10.20
2018-12-21T10:38:57.089Z,10.10
2018-12-21T10:41:24.652Z,9.90
2018-12-21T10:43:52.205Z,9.80
2018-12-21T10:46:19.765Z,9.90
2018-12-21T10:48:48.305Z,10.00
2018-12-21T10:51:15.856Z,10.00
2018-12-21T10:53:46.580Z,10.10
2018-12-21T10:56:11.776Z,10.20
2018-12-21T10:58:39.315Z,10.10
2018-12-21T11:01:06.867Z,10.40
2018-12-21T11:03:36.336Z,10.50
2018-12-21T11:06:03.931Z,10.60
2018-12-21T11:08:31.469Z,10.40
2018-12-21T11:10:59.038Z,10.50
2018-12-21T11:13:26.584Z,10.60
2018-12-21T11:15:54.248Z,10.60
2018-12-21T11:18:22.320Z,10.50
2018-12-21T11:20:49.873Z,10.50
2018-12-21T11:23:17.535Z,10.50
2018-12-21T11:25:45.109Z,10.60
2018-12-21T11:28:12.671Z,10.70
2018-12-21T11:30:40.217Z,10.90
2018-12-21T11:33:07.890Z,10.80
2018-12-21T11:35:35.411Z,10.80
2018-12-21T11:38:04.004Z,10.90
2018-12-21T11:40:31.548Z,10.80
2018-12-21T11:42:59.233Z,10.70
2018-12-21T11:45:26.777Z,10.60
2018-12-21T11:47:54.368Z,10.60
2018-12-21T11:50:21.912Z,10.70
2018-12-21T11:52:49.465Z,10.80
2018-12-21T11:55:17.077Z,10.80
2018-12-21T11:57:45.386Z,10.70
2018-12-21T12:00:12.964Z,10.80
2018-12-21T12:02:40.527Z,10.90
2018-12-21T12:05:08.082Z,10.90
2018-12-21T12:07:35.660Z,10.80
2018-12-21T12:10:03.240Z,10.80
2018-12-21T12:12:31.800Z,10.80
2018-12-21T12:14:59.406Z,10.80
2018-12-21T12:17:26.972Z,10.90
2018-12-21T12:19:54.516Z,11.00
2018-12-21T12:22:22.088Z,11.10
2018-12-21T12:24:52.840Z,11.10
2018-12-21T12:27:17.263Z,11.20
2018-12-21T12:29:44.817Z,11.20
2018-12-21T12:32:12.392Z,11.30
2018-12-21T12:34:39.939Z,11.20
2018-12-21T12:37:07.517Z,11.10
2018-12-21T12:39:35.060Z,11.00
2018-12-21T12:42:03.737Z,10.90
2018-12-21T12:44:30.222Z,10.80
2018-12-21T12:46:57.772Z,10.70
2018-12-21T12:49:25.345Z,10.70
2018-12-21T12:51:52.893Z,10.70
2018-12-21T12:54:20.461Z,10.80
2018-12-21T12:56:48.003Z,10.80
2018-12-21T12:59:15.548Z,10.70
2018-12-21T13:01:43.120Z,10.60
2018-12-21T13:04:10.668Z,10.50
2018-12-21T13:06:38.243Z,10.60
2018-12-21T13:09:05.785Z,10.50
2018-12-21T13:11:33.332Z,10.70
2018-12-21T13:14:00.915Z,10.70
2018-12-21T13:16:28.850Z,10.70
2018-12-21T13:18:56.427Z,10.60
2018-12-21T13:21:23.968Z,10.70
2018-12-21T13:23:51.544Z,10.80
2018-12-21T13:26:19.100Z,10.80
2018-12-21T13:28:47.662Z,10.80
2018-12-21T13:31:15.244Z,11.10
2018-12-21T13:33:42.793Z,11.00
2018-12-21T13:36:10.453Z,11.00
2018-12-21T13:38:37.997Z,11.00
2018-12-21T13:41:05.659Z,10.90
2018-12-21T13:43:33.196Z,11.10
2018-12-21T13:46:00.739Z,11.00
2018-12-21T13:48:28.299Z,11.00
2018-12-21T13:50:55.884Z,11.10
2018-12-21T13:53:23.452Z,11.10
2018-12-21T13:55:50.991Z,11.10
2018-12-21T13:58:18.567Z,11.10
2018-12-21T14:00:46.200Z,11.10
2018-12-21T14:03:13.766Z,11.20
2018-12-21T14:05:41.535Z,11.30
2018-12-21T14:08:09.124Z,11.30
2018-12-21T14:10:36.690Z,11.30
2018-12-21T14:13:04.230Z,11.30
2018-12-21T14:15:31.801Z,11.30
2018-12-21T14:17:59.344Z,11.40
2018-12-21T14:20:26.896Z,11.40
2018-12-21T14:22:54.463Z,11.40
2018-12-21T14:25:28.848Z,11.50
2018-12-21T14:27:50.391Z,11.50
2018-12-21T14:30:17.935Z,11.40
2018-12-21T14:32:45.510Z,11.50
2018-12-21T14:35:13.095Z,11.50
2018-12-21T14:37:40.642Z,11.60
2018-12-21T14:40:08.208Z,11.70
2018-12-21T14:42:35.760Z,11.70
2018-12-21T14:45:03.371Z,11.60
2018-12-21T14:47:31.033Z,11.70
2018-12-21T14:49:58.612Z,11.70
2018-12-21T14:52:26.193Z,11.70
2018-12-21T14:54:53.735Z,11.70
2018-12-21T14:57:21.541Z,11.70
2018-12-21T14:59:49.079Z,11.70
2018-12-21T15:02:16.628Z,11.70
2018-12-21T15:04:44.195Z,11.80
2018-12-21T15:07:11.748Z,11.80
2018-12-21T15:09:39.324Z,11.70
2018-12-21T15:12:07.633Z,11.80
2018-12-21T15:14:35.196Z,11.80
2018-12-21T15:17:03.680Z,11.80
2018-12-21T15:19:31.250Z,11.80
2018-12-21T15:21:58.811Z,11.80
2018-12-21T15:24:26.348Z,11.80
2018-12-21T15:26:54.900Z,11.80
2018-12-21T15:29:22.435Z,11.80
2018-12-21T15:31:50.011Z,11.70
2018-12-21T15:34:17.554Z,11.80
2018-12-21T15:36:45.883Z,11.80
2018-12-21T15:39:13.648Z,11.80
2018-12-21T15:41:41.194Z,11.80
2018-12-21T15:44:08.760Z,11.70
2018-12-21T15:46:36.328Z,11.80
2018-12-21T15:49:03.892Z,11.80
2018-12-21T15:51:31.432Z,11.80
2018-12-21T15:53:59.985Z,11.80
2018-12-21T15:56:27.633Z,11.80
2018-12-21T15:58:55.204Z,11.80
2018-12-21T16:01:22.770Z,11.80
2018-12-21T16:03:50.340Z,11.80
2018-12-21T16:06:17.881Z,11.80
2018-12-21T16:08:45.462Z,11.80
2018-12-21T16:11:13.043Z,11.80
2018-12-21T16:13:40.607Z,11.80
2018-12-21T16:16:08.200Z,11.80
2018-12-21T16:18:36.772Z,11.80
2018-12-21T16:21:04.419Z,11.90
2018-12-21T16:23:32.720Z,11.90
2018-12-21T16:26:03.617Z,11.90
2018-12-21T16:28:28.636Z,11.90
2018-12-21T16:30:56.209Z,11.90
2018-12-21T16:33:23.780Z,11.90
2018-12-21T16:35:51.333Z,11.90
2018-12-21T16:38:18.892Z,12.00
2018-12-21T16:40:46.442Z,11.90
2018-12-21T16:43:15.052Z,12.00
2018-12-21T16:45:42.593Z,12.00
2018-12-21T16:48:10.158Z,12.00
2018-12-21T16:50:38.720Z,12.00
2018-12-21T16:53:06.256Z,12.00
2018-12-21T16:55:33.823Z,11.90
2018-12-21T16:58:01.732Z,11.90
2018-12-21T17:00:29.272Z,11.90
2018-12-21T17:02:57.832Z,11.90
2018-12-21T17:05:25.375Z,11.90
2018-12-21T17:07:52.949Z,11.90
2018-12-21T17:10:20.500Z,11.90
2018-12-21T17:12:49.056Z,11.80
2018-12-21T17:15:16.625Z,11.80
2018-12-21T17:17:44.168Z,11.80
2018-12-21T17:20:11.896Z,11.80
2018-12-21T17:22:39.448Z,11.80
2018-12-21T17:25:07.190Z,11.80
2018-12-21T17:27:34.752Z,11.70
2018-12-21T17:30:02.287Z,11.70
2018-12-21T17:32:29.861Z,11.70
2018-12-21T17:34:57.401Z,11.70
2018-12-21T17:37:24.980Z,11.70
2018-12-21T17:39:52.516Z,11.70
2018-12-21T17:42:21.083Z,11.70
2018-12-21T17:44:48.630Z,11.80
2018-12-21T17:47:16.175Z,11.90
2018-12-21T17:49:43.756Z,12.00
2018-12-21T17:52:11.305Z,12.00
2018-12-21T17:54:38.872Z,12.00
2018-12-21T17:57:06.446Z,12.00
2018-12-21T17:59:34.008Z,12.10
2018-12-21T18:02:01.547Z,12.10
2018-12-21T18:04:29.120Z,12.20
2018-12-21T18:06:56.703Z,12.20
2018-12-21T18:09:25.184Z,12.10
2018-12-21T18:11:57.123Z,12.20
2018-12-21T18:14:20.346Z,12.20
2018-12-21T18:16:48.677Z,12.30
2018-12-21T18:19:16.211Z,12.20
2018-12-21T18:21:43.752Z,12.20
2018-12-21T18:24:12.068Z,12.30
2018-12-21T18:26:39.608Z,12.30
2018-12-21T18:29:08.431Z,12.20
2018-12-21T18:31:37.555Z,12.30
2018-12-21T18:34:05.136Z,12.30
2018-12-21T18:36:32.694Z,12.30
2018-12-21T18:39:00.272Z,12.30
2018-12-21T18:41:27.817Z,12.30
2018-12-21T18:43:55.391Z,12.30
2018-12-21T18:46:22.943Z,12.30
2018-12-21T18:48:50.491Z,12.30
2018-12-21T18:51:18.733Z,12.30
2018-12-21T18:53:46.285Z,12.30
2018-12-21T18:56:14.868Z,12.30
2018-12-21T18:58:42.408Z,12.30
2018-12-21T19:01:09.988Z,12.40
2018-12-21T19:03:37.652Z,12.40
2018-12-21T19:06:05.274Z,12.50
2018-12-21T19:08:32.889Z,12.40
2018-12-21T19:11:00.432Z,12.40
2018-12-21T19:13:28.013Z,12.40
2018-12-21T19:15:55.553Z,12.40
2018-12-21T19:18:23.117Z,12.40
2018-12-21T19:20:50.672Z,12.40
2018-12-21T19:23:18.245Z,12.40
2018-12-21T19:25:45.847Z,12.40
2018-12-21T19:28:13.371Z,12.30
2018-12-21T19:30:40.935Z,12.30
2018-12-21T19:33:08.477Z,12.20
2018-12-21T19:35:36.060Z,12.20
2018-12-21T19:38:03.601Z,12.10
2018-12-21T19:40:31.168Z,12.10
2018-12-21T19:42:58.712Z,12.10
2018-12-21T19:45:26.276Z,12.20
2018-12-21T19:47:53.848Z,12.20
2018-12-21T19:50:21.387Z,12.30
2018-12-21T19:52:48.951Z,12.20
2018-12-21T19:55:16.496Z,12.20
2018-12-21T19:57:45.060Z,12.20
2018-12-21T20:00:12.608Z,12.20
2018-12-21T20:02:40.170Z,12.20
2018-12-21T20:05:07.736Z,12.30
2018-12-21T20:07:35.304Z,12.30
2018-12-21T20:10:03.896Z,12.20
2018-12-21T20:12:31.436Z,12.30
2018-12-21T20:14:59.045Z,12.30
2018-12-21T20:17:26.643Z,12.20
2018-12-21T20:19:54.210Z,12.20
2018-12-21T20:22:21.780Z,12.30
2018-12-21T20:24:49.316Z,12.30
2018-12-21T20:27:16.893Z,12.40
2018-12-21T20:29:44.448Z,12.30
2018-12-21T20:32:12.022Z,12.30
2018-12-21T20:34:39.567Z,12.30
2018-12-21T20:37:07.119Z,12.30
2018-12-21T20:39:34.679Z,12.40
2018-12-21T20:42:02.224Z,12.40
2018-12-21T20:44:29.792Z,12.30
2018-12-21T20:46:57.331Z,12.30
2018-12-21T20:49:24.881Z,12.40
2018-12-21T20:51:52.448Z,12.40
2018-12-21T20:54:19.984Z,12.30
2018-12-21T20:56:47.660Z,12.50
2018-12-21T20:59:15.214Z,12.50
2018-12-21T21:01:42.785Z,12.50
2018-12-21T21:04:10.328Z,12.50
2018-12-21T21:06:37.896Z,12.50
2018-12-21T21:09:05.464Z,12.40
2018-12-21T21:11:33.011Z,12.40
2018-12-21T21:14:00.579Z,12.40
2018-12-21T21:16:28.116Z,12.40
2018-12-21T21:18:55.688Z,12.40
2018-12-21T21:21:23.257Z,12.40
2018-12-21T21:23:50.796Z,12.40
2018-12-21T21:26:18.360Z,12.40
2018-12-21T21:28:45.892Z,12.40
2018-12-21T21:31:13.431Z,12.40
2018-12-21T21:33:40.996Z,12.30
2018-12-21T21:36:08.588Z,12.40
2018-12-21T21:38:36.172Z,12.40
2018-12-21T21:41:03.712Z,12.40
2018-12-21T21:43:31.276Z,12.50
2018-12-21T21:45:58.815Z,12.50
2018-12-21T21:48:26.384Z,12.50
2018-12-21T21:50:53.952Z,12.50
2018-12-21T21:53:21.536Z,12.60
2018-12-21T21:55:49.150Z,12.50
2018-12-21T21:58:16.660Z,12.60
2018-12-21T22:00:44.228Z,12.50
2018-12-21T22:03:11.767Z,12.60
2018-12-21T22:05:40.106Z,12.50
2018-12-21T22:08:07.644Z,12.60
2018-12-21T22:10:35.192Z,12.60
2018-12-21T22:13:02.759Z,12.60
2018-12-21T22:15:30.333Z,12.70
2018-12-21T22:17:57.900Z,12.70
2018-12-21T22:20:25.443Z,12.60
2018-12-21T22:22:53.020Z,12.70
2018-12-21T22:25:20.571Z,12.70
2018-12-21T22:27:48.367Z,12.70
2018-12-21T22:30:15.735Z,12.70
2018-12-21T22:32:43.296Z,12.70
2018-12-21T22:35:10.904Z,12.70
2018-12-21T22:37:38.489Z,12.70
2018-12-21T22:40:06.064Z,12.70
2018-12-21T22:42:33.604Z,12.70
2018-12-21T22:45:02.163Z,12.70
2018-12-21T22:47:29.710Z,12.70
2018-12-21T22:49:57.304Z,12.70
2018-12-21T22:52:24.856Z,12.70
2018-12-21T22:54:53.175Z,12.80
2018-12-21T22:57:20.744Z,12.80
2018-12-21T22:59:48.288Z,12.80
2018-12-21T23:02:16.178Z,12.70
2018-12-21T23:04:43.721Z,12.70
2018-12-21T23:07:11.287Z,12.80
2018-12-21T23:09:38.828Z,12.80
2018-12-21T23:12:06.375Z,12.80
2018-12-21T23:14:33.948Z,12.70
2018-12-21T23:17:01.532Z,12.80
2018-12-21T23:19:29.152Z,12.80
2018-12-21T23:21:56.696Z,12.70
2018-12-21T23:24:24.267Z,12.70
2018-12-21T23:26:51.836Z,12.70
2018-12-21T23:29:19.489Z,12.70
2018-12-21T23:31:47.070Z,12.80
2018-12-21T23:34:14.608Z,12.80
2018-12-21T23:36:42.176Z,12.90
2018-12-21T23:39:09.724Z,12.90
2018-12-21T23:41:37.296Z,12.90
2018-12-21T23:44:05.883Z,12.90
2018-12-21T23:46:33.437Z,12.90
2018-12-21T23:49:01.014Z,13.00
2018-12-21T23:51:28.556Z,13.00
2018-12-21T23:53:56.123Z,13.00
2018-12-21T23:56:23.861Z,13.00
2018-12-21T23:58:51.460Z,13.00
